createdAt,value
2022-11-22T00:00:40.738Z,3.35
2022-11-22T00:03:08.629Z,3.38
2022-11-22T00:05:36.642Z,3.22
2022-11-22T00:08:04.679Z,3.30
2022-11-22T00:10:32.480Z,3.20
2022-11-22T00:13:00.373Z,2.97
2022-11-22T00:15:29.905Z,3.42
2022-11-22T00:17:57.715Z,3.17
2022-11-22T00:20:25.592Z,3.08
2022-11-22T00:22:53.319Z,3.30
2022-11-22T00:25:21.122Z,3.08
2022-11-22T00:27:48.983Z,2.78
2022-11-22T00:30:16.891Z,3.05
2022-11-22T00:32:44.647Z,2.80
2022-11-22T00:35:12.890Z,3.00
2022-11-22T00:37:40.660Z,2.65
2022-11-22T00:40:08.704Z,3.15
2022-11-22T00:42:36.426Z,2.60
2022-11-22T00:45:04.288Z,2.92
2022-11-22T00:47:32.106Z,3.03
2022-11-22T00:49:59.824Z,2.80
2022-11-22T00:52:27.612Z,3.10
2022-11-22T00:54:55.419Z,2.50
2022-11-22T00:57:23.276Z,3.08
2022-11-22T00:59:51.029Z,3.00
2022-11-22T01:02:18.736Z,2.65
2022-11-22T01:04:47.361Z,3.17
2022-11-22T01:07:15.144Z,2.70
2022-11-22T01:09:42.911Z,2.97
2022-11-22T01:12:10.700Z,2.85
2022-11-22T01:14:38.439Z,2.80
2022-11-22T01:17:06.180Z,2.80
2022-11-22T01:19:33.941Z,2.83
2022-11-22T01:22:01.679Z,2.85
2022-11-22T01:24:29.477Z,2.75
2022-11-22T01:26:57.405Z,2.63
2022-11-22T01:29:25.164Z,2.88
2022-11-22T01:31:52.884Z,2.60
2022-11-22T01:34:20.740Z,2.90
2022-11-22T01:36:48.487Z,2.70
2022-11-22T01:39:16.262Z,2.95
2022-11-22T01:41:44.039Z,2.95
2022-11-22T01:44:24.075Z,3.25
2022-11-22T01:46:56.751Z,2.67
2022-11-22T01:49:28.476Z,3.08
2022-11-22T01:51:59.226Z,3.03
2022-11-22T01:54:28.419Z,3.17
2022-11-22T01:56:58.395Z,3.03
2022-11-22T01:59:27.950Z,3.08
2022-11-22T02:01:56.679Z,3.23
2022-11-22T02:04:29.183Z,3.17
2022-11-22T02:07:06.788Z,2.90
2022-11-22T02:09:35.254Z,3.30
2022-11-22T02:12:04.793Z,3.15
2022-11-22T02:14:32.753Z,3.10
2022-11-22T02:17:00.522Z,2.95
2022-11-22T02:19:28.464Z,3.30
2022-11-22T02:21:59.472Z,3.10
2022-11-22T02:24:36.928Z,3.22
2022-11-22T02:27:04.781Z,3.08
2022-11-22T02:29:33.227Z,3.40
2022-11-22T02:32:00.959Z,3.10
2022-11-22T02:34:28.787Z,3.00
2022-11-22T02:36:56.562Z,3.55
2022-11-22T02:39:30.319Z,3.10
2022-11-22T02:41:58.437Z,3.00
2022-11-22T02:44:28.131Z,3.30
2022-11-22T02:46:56.341Z,3.30
2022-11-22T02:49:25.564Z,3.15
2022-11-22T02:51:53.875Z,3.25
2022-11-22T02:54:21.687Z,3.00
2022-11-22T02:56:49.514Z,2.83
2022-11-22T02:59:17.240Z,3.10
2022-11-22T03:01:46.627Z,3.25
2022-11-22T03:04:24.970Z,3.13
2022-11-22T03:06:56.907Z,3.10
2022-11-22T03:09:25.388Z,3.17
2022-11-22T03:11:53.302Z,3.03
2022-11-22T03:14:21.114Z,3.05
2022-11-22T03:16:49.070Z,2.90
2022-11-22T03:19:17.337Z,2.97
2022-11-22T03:21:46.083Z,3.13
2022-11-22T03:24:14.080Z,2.92
2022-11-22T03:26:42.032Z,3.10
2022-11-22T03:29:09.756Z,2.90
2022-11-22T03:31:37.627Z,3.10
2022-11-22T03:34:05.475Z,2.92
2022-11-22T03:36:33.246Z,3.10
2022-11-22T03:39:00.992Z,2.95
2022-11-22T03:41:28.706Z,3.00
2022-11-22T03:43:56.538Z,3.00
2022-11-22T03:46:24.316Z,2.97
2022-11-22T03:48:52.047Z,3.05
2022-11-22T03:51:19.770Z,2.60
2022-11-22T03:53:47.568Z,2.95
2022-11-22T03:56:15.316Z,2.92
2022-11-22T03:58:43.072Z,2.50
2022-11-22T04:01:16.192Z,2.60
2022-11-22T04:03:44.440Z,2.80
2022-11-22T04:06:12.320Z,2.83
2022-11-22T04:08:40.183Z,2.55
2022-11-22T04:11:08.137Z,2.83
2022-11-22T04:13:55.201Z,2.70
2022-11-22T04:16:22.924Z,2.67
2022-11-22T04:18:50.664Z,2.78
2022-11-22T04:21:36.645Z,2.63
2022-11-22T04:24:27.393Z,2.25
2022-11-22T04:26:55.442Z,2.90
2022-11-22T04:29:23.660Z,2.47
2022-11-22T04:32:10.871Z,2.50
2022-11-22T04:34:38.758Z,2.88
2022-11-22T04:37:06.689Z,2.33
2022-11-22T04:39:34.453Z,2.40
2022-11-22T04:42:21.034Z,2.17
2022-11-22T04:44:48.857Z,2.40
2022-11-22T04:47:38.007Z,2.38
2022-11-22T04:50:27.143Z,2.08
2022-11-22T04:52:56.263Z,2.60
2022-11-22T04:55:24.123Z,2.60
2022-11-22T04:57:57.559Z,2.60
2022-11-22T05:00:27.775Z,2.28
2022-11-22T05:02:55.861Z,2.15
2022-11-22T05:05:24.359Z,2.58
2022-11-22T05:07:52.203Z,2.30
2022-11-22T05:10:25.836Z,2.50
2022-11-22T05:12:54.562Z,2.30
2022-11-22T05:15:22.391Z,2.10
2022-11-22T05:17:50.177Z,2.30
2022-11-22T05:20:18.095Z,2.45
2022-11-22T05:23:04.289Z,2.20
2022-11-22T05:25:32.121Z,1.92
2022-11-22T05:27:59.895Z,2.40
2022-11-22T05:30:27.629Z,2.03
2022-11-22T05:32:55.777Z,2.00
2022-11-22T05:35:23.641Z,2.20
2022-11-22T05:37:51.404Z,2.30
2022-11-22T05:40:19.124Z,2.13
2022-11-22T05:42:46.835Z,2.10
2022-11-22T05:45:14.765Z,2.00
2022-11-22T05:47:42.728Z,2.00
2022-11-22T05:50:10.638Z,2.17
2022-11-22T05:52:38.425Z,2.17
2022-11-22T05:55:06.398Z,2.47
2022-11-22T05:57:34.432Z,2.00
2022-11-22T06:00:02.263Z,2.10
2022-11-22T06:02:39.665Z,1.80
2022-11-22T06:05:07.594Z,1.90
2022-11-22T06:07:35.368Z,1.77
2022-11-22T06:10:03.200Z,2.10
2022-11-22T06:12:30.914Z,2.20
2022-11-22T06:14:58.650Z,1.90
2022-11-22T06:17:26.433Z,1.90
2022-11-22T06:19:54.159Z,1.70
2022-11-22T06:22:21.933Z,1.90
2022-11-22T06:24:49.753Z,1.90
2022-11-22T06:27:17.698Z,2.00
2022-11-22T06:29:45.593Z,1.80
2022-11-22T06:32:13.624Z,1.73
2022-11-22T06:34:41.436Z,1.90
2022-11-22T06:37:09.152Z,1.67
2022-11-22T06:39:37.921Z,2.00
2022-11-22T06:42:05.776Z,1.70
2022-11-22T06:44:34.563Z,1.75
2022-11-22T06:47:02.284Z,1.60
2022-11-22T06:49:30.271Z,1.60
2022-11-22T06:51:58.248Z,1.98
2022-11-22T06:54:26.085Z,1.83
2022-11-22T06:56:53.798Z,1.85
2022-11-22T06:59:21.586Z,1.90
2022-11-22T07:01:49.341Z,1.70
2022-11-22T07:04:17.185Z,1.92
2022-11-22T07:06:44.921Z,1.88
2022-11-22T07:09:12.769Z,1.80
2022-11-22T07:11:41.993Z,1.85
2022-11-22T07:14:09.909Z,1.88
2022-11-22T07:16:39.385Z,2.00
2022-11-22T07:19:07.675Z,1.75
2022-11-22T07:21:36.776Z,1.70
2022-11-22T07:24:05.303Z,1.70
2022-11-22T07:26:33.130Z,1.85
2022-11-22T07:29:00.882Z,2.00
2022-11-22T07:31:28.668Z,1.90
2022-11-22T07:33:58.297Z,2.13
2022-11-22T07:36:28.825Z,1.95
2022-11-22T07:38:56.833Z,2.00
2022-11-22T07:41:24.576Z,1.58
2022-11-22T07:43:53.309Z,2.00
2022-11-22T07:46:34.087Z,1.88
2022-11-22T07:49:02.832Z,1.83
2022-11-22T07:51:30.739Z,1.85
2022-11-22T07:53:59.008Z,1.85
2022-11-22T07:56:26.791Z,1.80
2022-11-22T07:58:54.530Z,1.90
2022-11-22T08:01:23.771Z,1.98
2022-11-22T08:03:51.703Z,1.58
2022-11-22T08:06:19.474Z,1.60
2022-11-22T08:08:47.208Z,1.60
2022-11-22T08:11:14.934Z,1.45
2022-11-22T08:13:42.888Z,1.70
2022-11-22T08:16:12.710Z,1.70
2022-11-22T08:18:40.821Z,1.60
2022-11-22T08:21:12.633Z,1.48
2022-11-22T08:23:41.039Z,1.40
2022-11-22T08:26:09.788Z,1.45
2022-11-22T08:28:38.003Z,1.45
2022-11-22T08:31:07.008Z,1.80
2022-11-22T08:33:35.190Z,1.67
2022-11-22T08:36:03.077Z,1.50
2022-11-22T08:38:30.903Z,1.50
2022-11-22T08:40:58.891Z,1.38
2022-11-22T08:43:26.645Z,1.65
2022-11-22T08:45:56.218Z,1.63
2022-11-22T08:48:24.387Z,1.40
2022-11-22T08:50:56.068Z,1.48
2022-11-22T08:53:24.283Z,1.73
2022-11-22T08:55:52.012Z,1.33
2022-11-22T08:58:20.253Z,1.38
2022-11-22T09:00:48.066Z,1.50
2022-11-22T09:03:15.972Z,1.20
2022-11-22T09:08:35.908Z,1.40
2022-11-22T09:11:05.780Z,1.42
2022-11-22T09:13:33.748Z,1.48
2022-11-22T09:16:12.175Z,1.60
2022-11-22T09:18:39.961Z,1.52
2022-11-22T09:21:09.076Z,1.40
2022-11-22T09:23:38.491Z,2.30
2022-11-22T09:26:07.814Z,2.33
2022-11-22T09:28:36.054Z,1.92
2022-11-22T09:31:05.446Z,2.05
2022-11-22T09:33:34.437Z,1.70
2022-11-22T09:36:02.199Z,1.60
2022-11-22T09:38:30.846Z,1.63
2022-11-22T09:40:59.258Z,1.70
2022-11-22T09:43:29.989Z,1.52
2022-11-22T09:46:08.364Z,1.70
2022-11-22T09:48:38.981Z,1.60
2022-11-22T09:51:10.340Z,1.60
2022-11-22T09:53:42.813Z,1.73
2022-11-22T09:56:13.235Z,1.65
2022-11-22T09:58:47.942Z,1.50
2022-11-22T10:01:18.536Z,1.60
2022-11-22T10:03:46.409Z,1.50
2022-11-22T10:06:30.043Z,1.63
2022-11-22T10:08:57.852Z,1.50
2022-11-22T10:11:39.304Z,1.67
2022-11-22T10:14:15.863Z,1.70
2022-11-22T10:16:52.340Z,1.30
2022-11-22T10:19:26.286Z,1.50
2022-11-22T10:21:54.105Z,1.40
2022-11-22T10:24:22.000Z,1.33
2022-11-22T10:26:50.138Z,1.40
2022-11-22T10:29:25.571Z,1.50
2022-11-22T10:32:11.776Z,1.30
2022-11-22T10:34:39.548Z,1.23
2022-11-22T10:37:19.363Z,1.38
2022-11-22T10:39:56.743Z,1.50
2022-11-22T10:42:43.082Z,1.40
2022-11-22T10:45:29.416Z,1.40
2022-11-22T10:47:59.916Z,1.50
2022-11-22T10:50:49.187Z,1.30
2022-11-22T10:53:35.626Z,1.70
2022-11-22T10:56:03.335Z,1.30
2022-11-22T10:58:38.733Z,1.60
2022-11-22T11:01:23.356Z,1.20
2022-11-22T11:03:55.040Z,1.38
2022-11-22T11:06:37.911Z,1.10
2022-11-22T11:12:22.727Z,1.10
2022-11-22T11:14:53.097Z,1.25
2022-11-22T11:17:27.531Z,1.17
2022-11-22T11:19:56.808Z,1.30
2022-11-22T11:22:50.375Z,1.75
2022-11-22T11:25:33.497Z,1.33
2022-11-22T11:28:09.259Z,1.40
2022-11-22T11:30:41.443Z,1.67
2022-11-22T11:33:25.839Z,2.00
2022-11-22T11:35:56.963Z,2.00
2022-11-22T11:38:34.394Z,2.30
2022-11-22T11:41:21.831Z,2.15
2022-11-22T11:43:50.498Z,2.30
2022-11-22T11:46:19.566Z,2.75
2022-11-22T11:48:47.908Z,2.30
2022-11-22T11:51:15.718Z,2.65
2022-11-22T11:53:50.217Z,2.47
2022-11-22T11:56:22.237Z,2.70
2022-11-22T11:58:54.467Z,2.75
2022-11-22T12:01:22.562Z,2.72
2022-11-22T12:03:58.010Z,2.40
2022-11-22T12:06:32.651Z,2.60
2022-11-22T12:09:02.643Z,2.13
2022-11-22T12:11:34.313Z,2.25
2022-11-22T12:14:19.532Z,2.42
2022-11-22T12:16:49.101Z,2.40
2022-11-22T12:19:37.116Z,2.33
2022-11-22T12:22:19.816Z,2.30
2022-11-22T12:25:31.012Z,2.55
2022-11-22T12:27:51.785Z,2.70
2022-11-22T12:30:20.543Z,2.22
2022-11-22T12:32:54.595Z,2.60
2022-11-22T12:35:25.227Z,2.40
2022-11-22T12:37:57.949Z,2.53
2022-11-22T12:40:27.671Z,2.30
2022-11-22T12:42:55.486Z,2.25
2022-11-22T12:45:27.924Z,2.30
2022-11-22T12:47:58.379Z,2.33
2022-11-22T12:50:30.314Z,2.65
2022-11-22T12:53:08.130Z,2.05
2022-11-22T12:55:43.759Z,2.05
2022-11-22T12:58:33.095Z,2.30
2022-11-22T13:01:07.161Z,1.77
2022-11-22T13:03:38.584Z,2.00
2022-11-22T13:06:08.160Z,1.80
2022-11-22T13:08:48.791Z,1.98
2022-11-22T13:11:23.973Z,2.00
2022-11-22T13:16:20.410Z,1.50
2022-11-22T13:19:02.917Z,1.65
2022-11-22T13:21:49.300Z,2.03
2022-11-22T13:24:17.134Z,1.70
2022-11-22T13:26:47.796Z,1.67
2022-11-22T13:29:41.730Z,1.80
2022-11-22T13:32:12.735Z,1.52
2022-11-22T13:34:42.068Z,1.50
2022-11-22T13:37:14.835Z,1.60
2022-11-22T13:39:47.290Z,1.50
2022-11-22T13:42:18.296Z,1.60
2022-11-22T13:47:13.792Z,1.60
2022-11-22T13:49:48.161Z,1.35
2022-11-22T13:52:16.799Z,1.58
2022-11-22T13:54:47.489Z,1.50
2022-11-22T13:57:30.629Z,1.52
2022-11-22T14:00:16.846Z,1.50
2022-11-22T14:02:44.608Z,1.60
2022-11-22T14:05:21.475Z,1.50
2022-11-22T14:07:53.669Z,1.50
2022-11-22T14:10:33.847Z,1.30
2022-11-22T14:13:04.662Z,1.40
2022-11-22T14:15:47.702Z,1.50
2022-11-22T14:18:34.300Z,1.33
2022-11-22T14:21:02.188Z,1.40
2022-11-22T14:23:49.686Z,1.30
2022-11-22T14:26:21.878Z,1.40
2022-11-22T14:28:49.882Z,1.30
2022-11-22T14:31:26.976Z,1.10
2022-11-22T14:34:13.490Z,1.25
2022-11-22T14:36:41.251Z,1.38
2022-11-22T14:39:33.692Z,1.33
2022-11-22T14:42:02.266Z,1.50
2022-11-22T14:44:34.955Z,1.10
2022-11-22T14:47:04.563Z,1.10
2022-11-22T14:49:49.385Z,1.27
2022-11-22T14:52:27.586Z,1.10
2022-11-22T14:54:57.549Z,1.30
2022-11-22T14:57:26.525Z,1.38
2022-11-22T15:00:03.385Z,1.20
2022-11-22T15:02:31.161Z,1.20
2022-11-22T15:09:13.961Z,1.33
2022-11-22T15:09:17.127Z,1.20
2022-11-22T15:11:14.992Z,0.95
2022-11-22T15:13:54.938Z,1.10
2022-11-22T15:59:40.807Z,0.95
2022-11-22T16:02:15.211Z,0.90
2022-11-22T16:06:10.779Z,1.05
2022-11-22T16:07:47.497Z,1.15
2022-11-22T16:10:26.650Z,1.00
2022-11-22T16:12:54.780Z,1.02
2022-11-22T16:15:24.740Z,0.90
2022-11-22T16:17:59.243Z,0.80
2022-11-22T16:20:32.626Z,1.15
2022-11-22T16:23:04.866Z,0.95
2022-11-22T16:25:34.822Z,0.95
2022-11-22T16:28:05.278Z,1.15
2022-11-22T16:30:42.797Z,1.35
2022-11-22T16:33:13.769Z,0.80
2022-11-22T16:35:41.938Z,0.75
2022-11-22T16:38:10.919Z,0.80
2022-11-22T16:40:43.186Z,1.08
2022-11-22T16:43:18.008Z,1.13
2022-11-22T16:45:45.918Z,0.88
2022-11-22T16:48:35.084Z,1.08
2022-11-22T16:51:04.584Z,0.85
2022-11-22T16:53:38.529Z,0.93
2022-11-22T16:56:06.507Z,1.00
2022-11-22T16:58:34.437Z,0.93
2022-11-22T17:01:02.380Z,0.80
2022-11-22T17:03:31.989Z,1.17
2022-11-22T17:05:59.807Z,0.75
2022-11-22T17:08:27.581Z,1.10
2022-11-22T17:10:55.485Z,0.80
2022-11-22T17:13:27.951Z,0.63
2022-11-22T17:15:57.527Z,0.73
2022-11-22T17:18:25.399Z,0.82
2022-11-22T17:20:53.319Z,0.77
2022-11-22T17:23:36.694Z,1.23
2022-11-22T17:26:04.853Z,0.70
2022-11-22T17:28:32.791Z,0.90
2022-11-22T17:31:01.947Z,1.00
2022-11-22T17:33:35.221Z,0.75
2022-11-22T17:36:02.981Z,0.88
2022-11-22T17:38:33.115Z,0.70
2022-11-22T17:41:01.549Z,1.00
2022-11-22T17:43:29.391Z,0.77
2022-11-22T17:45:57.214Z,1.02
2022-11-22T17:48:25.030Z,1.10
2022-11-22T17:50:52.843Z,1.00
2022-11-22T17:53:20.635Z,0.70
2022-11-22T17:56:09.450Z,0.80
2022-11-22T17:58:36.847Z,1.00
2022-11-22T18:01:08.756Z,0.93
2022-11-22T18:03:36.757Z,0.75
2022-11-22T18:06:04.663Z,0.90
2022-11-22T18:08:33.261Z,1.00
2022-11-22T18:11:01.470Z,1.00
2022-11-22T18:13:30.437Z,0.88
2022-11-22T18:16:03.169Z,0.80
2022-11-22T18:21:20.039Z,0.93
2022-11-22T18:23:47.923Z,0.88
2022-11-22T18:31:52.897Z,0.90
2022-11-22T18:34:22.165Z,0.80
2022-11-22T18:37:06.774Z,0.75
2022-11-22T18:39:36.830Z,1.00
2022-11-22T18:42:09.584Z,0.90
2022-11-22T18:44:37.508Z,1.02
2022-11-22T18:47:05.377Z,0.75
2022-11-22T18:49:33.491Z,0.90
2022-11-22T18:52:01.632Z,1.20
2022-11-22T18:54:29.599Z,0.70
2022-11-22T18:56:57.547Z,0.90
2022-11-22T18:59:25.519Z,0.95
2022-11-22T19:01:53.568Z,0.82
2022-11-22T19:04:22.023Z,0.90
2022-11-22T19:06:50.008Z,0.82
2022-11-22T19:09:17.885Z,0.90
2022-11-22T19:11:45.751Z,0.77
2022-11-22T19:14:14.126Z,0.80
2022-11-22T19:16:42.229Z,0.98
2022-11-22T19:19:12.415Z,0.80
2022-11-22T19:21:40.654Z,1.10
2022-11-22T19:24:08.755Z,0.90
2022-11-22T19:26:36.758Z,0.70
2022-11-22T19:29:05.107Z,0.95
2022-11-22T19:31:33.916Z,1.10
2022-11-22T19:34:01.809Z,1.05
2022-11-22T19:36:34.296Z,0.75
2022-11-22T19:39:08.289Z,0.85
2022-11-22T19:41:36.782Z,1.00
2022-11-22T19:44:04.679Z,1.10
2022-11-22T19:46:32.548Z,0.98
2022-11-22T19:49:01.466Z,1.00
2022-11-22T19:51:31.025Z,0.80
2022-11-22T19:54:02.821Z,0.80
2022-11-22T19:56:32.810Z,1.00
2022-11-22T19:59:01.809Z,1.10
2022-11-22T20:01:31.089Z,1.08
2022-11-22T20:04:00.617Z,1.02
2022-11-22T20:06:29.624Z,0.88
2022-11-22T20:09:01.225Z,0.90
2022-11-22T20:11:28.989Z,0.80
2022-11-22T20:13:57.058Z,0.82
2022-11-22T20:16:28.122Z,0.75
2022-11-22T20:21:24.228Z,0.93
2022-11-22T20:23:52.367Z,0.80
2022-11-22T20:26:20.967Z,0.85
2022-11-22T20:28:48.995Z,0.85
2022-11-22T20:31:16.725Z,0.73
2022-11-22T20:33:45.999Z,1.10
2022-11-22T20:36:18.157Z,0.80
2022-11-22T20:38:46.840Z,0.80
2022-11-22T20:41:15.274Z,0.73
2022-11-22T20:43:43.386Z,0.70
2022-11-22T20:46:12.629Z,0.82
2022-11-22T20:48:41.124Z,0.95
2022-11-22T20:51:10.069Z,0.85
2022-11-22T20:53:38.201Z,1.08
2022-11-22T20:56:06.388Z,0.88
2022-11-22T20:58:34.417Z,0.80
2022-11-22T21:01:06.376Z,0.90
2022-11-22T21:03:34.399Z,0.95
2022-11-22T21:06:02.976Z,1.10
2022-11-22T21:08:31.181Z,0.93
2022-11-22T21:11:12.687Z,0.80
2022-11-22T21:13:42.316Z,0.80
2022-11-22T21:16:29.569Z,0.77
2022-11-22T21:18:58.473Z,0.90
2022-11-22T21:21:26.549Z,0.82
2022-11-22T21:23:55.474Z,0.80
2022-11-22T21:26:24.179Z,0.90
2022-11-22T21:28:52.776Z,1.00
2022-11-22T21:31:21.192Z,0.93
2022-11-22T21:33:49.462Z,0.90
2022-11-22T21:36:17.955Z,0.80
2022-11-22T21:38:46.144Z,0.85
2022-11-22T21:44:02.962Z,1.00
2022-11-22T21:46:30.702Z,0.80
2022-11-22T21:48:58.506Z,0.90
2022-11-22T21:51:26.628Z,0.90
2022-11-22T21:53:58.154Z,1.00
2022-11-22T21:56:26.442Z,0.80
2022-11-22T21:58:54.268Z,0.77
2022-11-22T22:01:22.689Z,0.90
2022-11-22T22:03:50.593Z,1.02
2022-11-22T22:06:18.327Z,1.02
2022-11-22T22:08:46.125Z,0.85
2022-11-22T22:11:13.920Z,0.90
2022-11-22T22:13:41.836Z,1.00
2022-11-22T22:16:19.059Z,0.80
2022-11-22T22:18:47.496Z,0.93
2022-11-22T22:21:16.011Z,1.00
2022-11-22T22:23:44.467Z,1.08
2022-11-22T22:26:13.339Z,0.80
2022-11-22T22:28:41.534Z,1.13
2022-11-22T22:31:14.163Z,0.80
2022-11-22T22:33:42.512Z,0.90
2022-11-22T22:36:11.500Z,0.85
2022-11-22T22:38:39.823Z,1.00
2022-11-22T22:41:08.172Z,1.00
2022-11-22T22:43:36.956Z,0.95
2022-11-22T22:46:06.802Z,1.20
2022-11-22T22:48:35.189Z,1.00
2022-11-22T22:51:11.531Z,0.82
2022-11-22T22:53:39.799Z,0.90
2022-11-22T22:56:07.883Z,0.90
2022-11-22T22:58:35.904Z,0.75
2022-11-22T23:01:12.281Z,0.88
2022-11-22T23:03:40.156Z,0.73
2022-11-22T23:06:08.779Z,1.10
2022-11-22T23:08:36.762Z,0.95
2022-11-22T23:11:09.088Z,1.00
2022-11-22T23:13:37.746Z,0.80
2022-11-22T23:16:06.482Z,0.80
2022-11-22T23:18:37.945Z,1.00
2022-11-22T23:21:06.488Z,0.90
2022-11-22T23:23:34.615Z,0.90
2022-11-22T23:26:09.767Z,0.88
2022-11-22T23:28:37.753Z,0.90
2022-11-22T23:31:15.157Z,0.95
2022-11-22T23:33:43.884Z,1.10
2022-11-22T23:36:13.087Z,1.00
2022-11-22T23:38:40.874Z,1.00
2022-11-22T23:41:11.813Z,0.88
2022-11-22T23:43:39.551Z,1.00
2022-11-22T23:46:09.183Z,1.15
2022-11-22T23:48:37.064Z,0.90
2022-11-22T23:51:04.968Z,1.10
2022-11-22T23:53:32.858Z,1.10
2022-11-22T23:56:09.496Z,0.80
2022-11-22T23:58:37.532Z,0.80
